createdAt,value
2022-12-10T00:00:10.399Z,73.74
2022-12-10T00:04:19.343Z,74.06
2022-12-10T00:08:22.598Z,74.17
2022-12-10T00:12:26.336Z,73.77
2022-12-10T00:16:34.934Z,74.18
2022-12-10T00:20:41.136Z,73.93
2022-12-10T00:24:44.147Z,74.02
2022-12-10T00:28:49.144Z,73.78
2022-12-10T00:32:55.123Z,74.04
2022-12-10T00:37:00.218Z,73.88
2022-12-10T00:41:04.922Z,74.07
2022-12-10T00:45:08.927Z,73.99
2022-12-10T00:49:13.152Z,73.44
2022-12-10T00:53:18.028Z,73.68
2022-12-10T00:57:21.533Z,73.91
2022-12-10T01:01:29.922Z,73.45
2022-12-10T01:05:33.106Z,73.98
2022-12-10T01:09:38.602Z,73.97
2022-12-10T01:13:42.908Z,73.90
2022-12-10T01:17:46.518Z,73.84
2022-12-10T01:21:53.475Z,73.95
2022-12-10T01:26:01.696Z,74.12
2022-12-10T01:30:07.023Z,74.22
2022-12-10T01:34:14.413Z,73.88
2022-12-10T01:38:17.866Z,74.12
2022-12-10T01:42:22.931Z,73.96
2022-12-10T01:46:28.079Z,73.81
2022-12-10T01:50:31.890Z,74.10
2022-12-10T01:54:38.165Z,73.77
2022-12-10T01:58:42.841Z,74.14
2022-12-10T02:02:52.222Z,73.73
2022-12-10T02:07:00.932Z,74.24
2022-12-10T02:11:17.929Z,73.96
2022-12-10T02:15:27.975Z,73.83
2022-12-10T02:19:49.687Z,73.78
2022-12-10T02:24:00.493Z,74.22
2022-12-10T02:28:13.513Z,74.00
2022-12-10T02:32:22.346Z,73.55
2022-12-10T02:36:30.086Z,74.28
2022-12-10T02:40:37.383Z,73.80
2022-12-10T02:44:44.545Z,73.34
2022-12-10T02:48:51.990Z,73.30
2022-12-10T02:52:55.068Z,73.84
2022-12-10T02:57:03.348Z,74.23
2022-12-10T03:01:15.094Z,73.81
2022-12-10T03:05:25.594Z,73.96
2022-12-10T03:09:39.930Z,73.63
2022-12-10T03:13:49.991Z,73.96
2022-12-10T03:17:54.441Z,73.96
2022-12-10T03:22:01.191Z,73.77
2022-12-10T03:26:06.739Z,73.80
2022-12-10T03:30:11.826Z,73.64
2022-12-10T03:34:16.584Z,73.72
2022-12-10T03:38:22.060Z,73.29
2022-12-10T03:42:25.694Z,73.18
2022-12-10T03:46:36.818Z,73.40
2022-12-10T03:50:40.376Z,73.45
2022-12-10T03:54:44.963Z,73.78
2022-12-10T03:58:48.720Z,73.91
2022-12-10T04:02:52.326Z,73.90
2022-12-10T04:06:56.001Z,73.27
2022-12-10T04:11:06.785Z,73.74
2022-12-10T04:15:29.275Z,73.65
2022-12-10T04:19:32.825Z,73.84
2022-12-10T04:23:54.066Z,73.72
2022-12-10T04:27:59.707Z,73.58
2022-12-10T04:32:03.071Z,73.80
2022-12-10T04:36:07.152Z,74.04
2022-12-10T04:40:12.004Z,73.52
2022-12-10T04:44:17.775Z,73.61
2022-12-10T04:48:21.457Z,73.70
2022-12-10T04:52:24.508Z,73.64
2022-12-10T04:56:28.449Z,74.13
2022-12-10T05:00:33.633Z,74.30
2022-12-10T05:04:37.379Z,74.33
2022-12-10T05:08:42.445Z,73.90
2022-12-10T05:12:45.472Z,73.96
2022-12-10T05:16:52.702Z,74.00
2022-12-10T05:20:56.275Z,74.06
2022-12-10T05:24:59.897Z,73.94
2022-12-10T05:29:03.060Z,73.79
2022-12-10T05:33:07.474Z,74.11
2022-12-10T05:37:11.324Z,74.43
2022-12-10T05:41:17.207Z,74.52
2022-12-10T05:45:20.718Z,74.16
2022-12-10T05:49:25.813Z,74.28
2022-12-10T05:53:29.476Z,74.54
2022-12-10T05:57:33.050Z,74.55
2022-12-10T06:01:37.623Z,73.98
2022-12-10T06:05:43.230Z,74.20
2022-12-10T06:09:46.866Z,74.08
2022-12-10T06:13:55.830Z,74.11
2022-12-10T06:18:00.113Z,74.05
2022-12-10T06:22:06.471Z,74.08
2022-12-10T06:26:11.929Z,74.30
2022-12-10T06:30:15.799Z,74.09
2022-12-10T06:34:19.409Z,74.31
2022-12-10T06:38:24.099Z,74.26
2022-12-10T06:42:27.744Z,74.29
2022-12-10T06:46:31.257Z,73.55
2022-12-10T06:50:34.863Z,73.56
2022-12-10T06:54:39.312Z,73.66
2022-12-10T06:58:43.634Z,73.05
2022-12-10T07:02:47.195Z,73.16
2022-12-10T07:06:50.742Z,73.54
2022-12-10T07:10:56.309Z,73.80
2022-12-10T07:14:59.771Z,73.62
2022-12-10T07:19:03.939Z,73.57
2022-12-10T07:23:07.473Z,73.71
2022-12-10T07:27:14.404Z,73.31
2022-12-10T07:31:17.586Z,73.27
2022-12-10T07:35:21.318Z,73.63
2022-12-10T07:39:24.752Z,73.94
2022-12-10T07:43:29.655Z,73.45
2022-12-10T07:47:32.922Z,73.18
2022-12-10T07:51:36.306Z,73.42
2022-12-10T07:55:39.783Z,73.61
2022-12-10T07:59:44.304Z,73.56
2022-12-10T08:03:51.540Z,73.55
2022-12-10T08:08:01.117Z,74.03
2022-12-10T08:12:06.769Z,73.97
2022-12-10T08:16:14.905Z,72.99
2022-12-10T08:20:18.138Z,72.72
2022-12-10T08:24:21.355Z,72.75
2022-12-10T08:28:24.942Z,72.86
2022-12-10T08:32:41.468Z,73.24
2022-12-10T08:36:46.410Z,72.47
2022-12-10T08:40:50.080Z,72.49
2022-12-10T08:44:56.518Z,71.82
2022-12-10T08:49:01.814Z,72.12
2022-12-10T08:53:05.969Z,72.57
2022-12-10T08:57:09.760Z,72.08
2022-12-10T09:01:16.043Z,72.94
2022-12-10T09:05:20.811Z,72.95
2022-12-10T09:09:24.003Z,72.76
2022-12-10T09:13:27.830Z,72.33
2022-12-10T09:17:31.311Z,72.97
2022-12-10T09:21:36.375Z,72.49
2022-12-10T09:25:39.398Z,72.59
2022-12-10T09:29:42.973Z,72.20
2022-12-10T09:33:46.840Z,71.92
2022-12-10T09:37:51.633Z,71.50
2022-12-10T09:42:10.958Z,71.35
2022-12-10T09:46:24.799Z,71.22
2022-12-10T09:50:35.057Z,70.35
2022-12-10T10:05:30.445Z,70.61
2022-12-10T10:09:38.597Z,70.21
2022-12-10T10:13:45.164Z,70.16
2022-12-10T10:17:51.183Z,70.12
2022-12-10T10:21:56.441Z,69.78
2022-12-10T10:26:00.056Z,69.59
2022-12-10T10:30:06.160Z,69.31
2022-12-10T10:34:18.066Z,69.88
2022-12-10T10:38:25.629Z,69.45
2022-12-10T10:42:38.610Z,69.89
2022-12-10T10:46:43.545Z,68.98
2022-12-10T10:50:49.587Z,69.13
2022-12-10T10:54:54.584Z,68.94
2022-12-10T10:59:00.473Z,69.54
2022-12-10T11:03:07.987Z,68.71
2022-12-10T11:07:23.245Z,69.01
2022-12-10T11:11:36.265Z,69.05
2022-12-10T11:15:41.748Z,68.73
2022-12-10T11:19:46.706Z,68.93
2022-12-10T11:23:54.160Z,69.09
2022-12-10T11:28:07.592Z,69.96
2022-12-10T11:32:23.803Z,69.54
2022-12-10T11:36:39.017Z,69.12
2022-12-10T11:40:49.513Z,69.58
2022-12-10T11:45:02.240Z,69.39
2022-12-10T11:49:17.572Z,71.50
2022-12-10T11:53:49.366Z,70.10
2022-12-10T11:58:06.376Z,69.65
2022-12-10T12:02:35.498Z,70.34
2022-12-10T12:06:55.821Z,70.66
2022-12-10T12:11:21.865Z,70.61
2022-12-10T12:15:34.497Z,70.31
2022-12-10T12:19:42.699Z,70.79
2022-12-10T12:23:56.626Z,71.33
2022-12-10T12:28:13.117Z,71.45
2022-12-10T12:32:22.239Z,71.52
2022-12-10T12:36:30.989Z,71.28
2022-12-10T12:40:42.499Z,71.26
2022-12-10T12:44:58.607Z,71.42
2022-12-10T12:49:13.262Z,71.26
2022-12-10T12:53:20.823Z,71.59
2022-12-10T12:57:32.875Z,71.27
2022-12-10T13:01:41.933Z,70.88
2022-12-10T13:05:45.740Z,70.88
2022-12-10T13:09:52.590Z,70.96
2022-12-10T13:14:21.540Z,71.17
2022-12-10T13:18:39.007Z,71.76
2022-12-10T13:22:57.790Z,71.61
2022-12-10T13:27:18.713Z,71.63
2022-12-10T13:31:35.345Z,70.93
2022-12-10T13:35:46.367Z,71.35
2022-12-10T13:39:56.111Z,71.37
2022-12-10T13:44:20.880Z,70.98
2022-12-10T13:48:36.099Z,71.42
2022-12-10T13:52:55.308Z,71.13
2022-12-10T13:57:06.884Z,71.90
2022-12-10T14:01:22.753Z,71.76
2022-12-10T14:05:41.440Z,71.22
2022-12-10T14:09:52.998Z,70.68
2022-12-10T14:14:00.980Z,71.41
2022-12-10T14:18:13.502Z,71.52
2022-12-10T14:22:21.887Z,72.04
2022-12-10T14:26:30.902Z,71.75
2022-12-10T14:30:34.706Z,71.89
2022-12-10T14:34:39.841Z,72.35
2022-12-10T14:38:43.504Z,72.04
2022-12-10T14:42:47.048Z,72.54
2022-12-10T14:46:52.378Z,72.53
2022-12-10T14:51:06.634Z,71.81
2022-12-10T14:55:16.434Z,72.39
2022-12-10T14:59:24.533Z,71.96
2022-12-10T15:03:32.028Z,72.70
2022-12-10T15:07:38.631Z,72.36
2022-12-10T15:11:42.706Z,72.62
2022-12-10T15:15:50.354Z,72.20
2022-12-10T15:19:54.134Z,72.67
2022-12-10T15:24:18.422Z,73.00
2022-12-10T15:28:28.020Z,72.20
2022-12-10T15:32:31.885Z,72.68
2022-12-10T15:36:42.142Z,72.35
2022-12-10T15:40:46.761Z,72.30
2022-12-10T15:44:50.875Z,72.44
2022-12-10T15:48:54.622Z,72.18
2022-12-10T15:52:59.936Z,72.48
2022-12-10T15:57:13.831Z,72.34
2022-12-10T16:01:18.727Z,72.79
2022-12-10T16:05:24.373Z,72.71
2022-12-10T16:09:27.846Z,72.69
2022-12-10T16:13:35.459Z,72.44
2022-12-10T16:17:39.064Z,72.73
2022-12-10T16:21:44.906Z,72.99
2022-12-10T16:25:51.556Z,72.70
2022-12-10T16:29:56.599Z,73.38
2022-12-10T16:34:01.747Z,72.81
2022-12-10T16:38:10.460Z,72.95
2022-12-10T16:42:29.582Z,73.05
2022-12-10T16:46:34.037Z,73.51
2022-12-10T16:50:38.135Z,73.09
2022-12-10T16:54:41.603Z,73.14
2022-12-10T16:58:45.686Z,73.19
2022-12-10T17:02:51.322Z,73.08
2022-12-10T17:06:54.562Z,73.53
2022-12-10T17:11:25.150Z,73.57
2022-12-10T17:15:28.736Z,73.27
2022-12-10T17:19:35.032Z,73.30
2022-12-10T17:23:38.192Z,73.20
2022-12-10T17:27:42.035Z,73.72
2022-12-10T17:31:46.108Z,73.62
2022-12-10T17:35:53.162Z,73.96
2022-12-10T17:39:56.387Z,73.53
2022-12-10T17:44:00.378Z,74.17
2022-12-10T17:48:03.888Z,73.53
2022-12-10T17:52:09.142Z,73.64
2022-12-10T17:56:17.476Z,73.49
2022-12-10T18:00:23.830Z,74.30
2022-12-10T18:04:27.049Z,74.23
2022-12-10T18:08:32.351Z,73.92
2022-12-10T18:12:37.344Z,73.69
2022-12-10T18:16:40.466Z,73.99
2022-12-10T18:20:46.762Z,73.93
2022-12-10T18:24:55.645Z,73.82
2022-12-10T18:29:01.310Z,74.13
2022-12-10T18:33:04.588Z,73.90
2022-12-10T18:37:09.267Z,73.88
2022-12-10T18:41:16.853Z,73.80
2022-12-10T18:45:20.681Z,73.79
2022-12-10T18:49:25.686Z,74.20
2022-12-10T18:53:30.095Z,73.81
2022-12-10T18:57:40.557Z,73.88
2022-12-10T19:01:47.735Z,74.03
2022-12-10T19:05:53.480Z,74.42
2022-12-10T19:09:57.242Z,73.93
2022-12-10T19:14:04.396Z,74.40
2022-12-10T19:18:11.150Z,74.01
2022-12-10T19:22:15.320Z,74.48
2022-12-10T19:26:27.899Z,74.40
2022-12-10T19:30:32.860Z,74.39
2022-12-10T19:34:37.417Z,74.26
2022-12-10T19:38:40.944Z,74.41
2022-12-10T19:42:46.427Z,74.20
2022-12-10T19:46:51.591Z,74.29
2022-12-10T19:50:55.671Z,74.67
2022-12-10T19:54:59.392Z,74.05
2022-12-10T19:59:14.111Z,74.28
2022-12-10T20:03:21.181Z,74.33
2022-12-10T20:07:27.256Z,74.35
2022-12-10T20:11:33.494Z,74.19
2022-12-10T20:15:39.134Z,74.56
2022-12-10T20:19:50.422Z,74.38
2022-12-10T20:23:59.637Z,73.89
2022-12-10T20:28:08.402Z,74.45
2022-12-10T20:32:12.526Z,74.12
2022-12-10T20:36:22.055Z,74.13
2022-12-10T20:40:32.433Z,74.05
2022-12-10T20:44:36.330Z,74.47
2022-12-10T20:48:40.608Z,74.46
2022-12-10T20:52:45.533Z,74.18
2022-12-10T20:56:48.715Z,74.24
2022-12-10T21:00:52.260Z,74.21
2022-12-10T21:04:56.919Z,74.60
2022-12-10T21:09:01.388Z,74.53
2022-12-10T21:13:06.322Z,74.43
2022-12-10T21:17:10.170Z,74.23
2022-12-10T21:21:17.856Z,74.38
2022-12-10T21:25:27.771Z,74.11
2022-12-10T21:29:33.511Z,74.10
2022-12-10T21:33:39.856Z,74.16
2022-12-10T21:37:43.667Z,74.49
2022-12-10T21:42:06.966Z,74.47
2022-12-10T21:46:11.439Z,74.89
2022-12-10T21:50:16.194Z,74.19
2022-12-10T21:54:19.697Z,74.17
2022-12-10T21:58:25.353Z,74.10
2022-12-10T22:02:29.916Z,74.13
2022-12-10T22:06:40.806Z,74.37
2022-12-10T22:10:49.889Z,74.45
2022-12-10T22:14:55.408Z,74.38
2022-12-10T22:18:58.653Z,74.07
2022-12-10T22:23:01.726Z,74.48
2022-12-10T22:27:05.406Z,74.26
2022-12-10T22:31:10.552Z,74.21
2022-12-10T22:35:15.071Z,74.23
2022-12-10T22:39:18.975Z,74.38
2022-12-10T22:43:51.441Z,74.46
2022-12-10T22:47:47.153Z,74.56
2022-12-10T22:51:50.220Z,74.30
2022-12-10T22:55:59.468Z,74.16
2022-12-10T23:00:02.788Z,74.35
2022-12-10T23:04:08.020Z,74.04
2022-12-10T23:08:11.798Z,74.07
2022-12-10T23:12:33.026Z,74.22
2022-12-10T23:16:36.179Z,74.04
2022-12-10T23:20:49.013Z,74.38
2022-12-10T23:24:53.883Z,74.40
2022-12-10T23:28:57.430Z,74.04
2022-12-10T23:33:03.748Z,74.46
2022-12-10T23:37:13.256Z,74.51
2022-12-10T23:41:17.285Z,74.22
2022-12-10T23:45:23.754Z,74.14
2022-12-10T23:49:27.407Z,74.12
2022-12-10T23:53:32.870Z,74.07
2022-12-10T23:57:37.148Z,74.26
